This is the latest recevied weather packets stored in our database for station/object OM3WYM-13. If no packets are shown the sender has not sent any weather packets the latest 10 day(s).
| Time | Temp. | Humidity | Pressure | Rain* | Wind** | Luminosity | Snow |
|---|---|---|---|---|---|---|---|
| 1778011808 | 12.78° C | 52% | 1010.6 hPa | - | - | - | - |
| 1778011208 | 12.78° C | 52% | 1010.6 hPa | - | - | - | - |
| 1778010608 | 13.33° C | 51% | 1010.5 hPa | - | - | - | - |
| 1778010008 | 13.89° C | 49% | 1010.3 hPa | - | - | - | - |
| 1778009408 | 13.89° C | 48% | 1010.3 hPa | - | - | - | - |
| 1778008808 | 14.44° C | 46% | 1010.2 hPa | - | - | - | - |
| 1778008208 | 15° C | 45% | 1010.2 hPa | - | - | - | - |
| 1778007608 | 15.56° C | 43% | 1010.2 hPa | - | - | - | - |
| 1778007008 | 16.67° C | 41% | 1010 hPa | - | - | - | - |
| 1778006408 | 17.22° C | 39% | 1009.9 hPa | - | - | - | - |
| 1778005808 | 17.78° C | 38% | 1009.7 hPa | - | - | - | - |
| 1778005208 | 18.89° C | 35% | 1009.6 hPa | - | - | - | - |
| 1778004608 | 20° C | 33% | 1009.4 hPa | - | - | - | - |
| 1778004008 | 21.11° C | 29% | 1009.3 hPa | - | - | - | - |
| 1778003408 | 21.67° C | 27% | 1009.2 hPa | - | - | - | - |
| 1778002808 | 22.78° C | 24% | 1009.1 hPa | - | - | - | - |
| 1778002208 | 23.33° C | 22% | 1009 hPa | - | - | - | - |
| 1778001608 | 23.89° C | 21% | 1008.9 hPa | - | - | - | - |
| 1778001008 | 25° C | 20% | 1008.9 hPa | - | - | - | - |
| 1778000408 | 25.56° C | 20% | 1008.8 hPa | - | - | - | - |
| 1777999808 | 26.11° C | 18% | 1008.7 hPa | - | - | - | - |
| 1777999208 | 27.78° C | 17% | 1008.6 hPa | - | - | - | - |
| 1777998608 | 27.78° C | 17% | 1008.8 hPa | - | - | - | - |
| 1777998008 | 27.22° C | 18% | 1008.8 hPa | - | - | - | - |
| 1777997408 | 26.67° C | 18% | 1008.9 hPa | - | - | - | - |
* Rain since midnight (hover to see other rain measurements)
** Current wind speed in m/s (hover to see current wind gust speed)